Time;durP1;ratioP1;P1;durP2;ratioP2;P2;SDS_P1;SDS_P2;PMS_P1;PMS_P2;Temp;Humidity;BMP_temperature;BMP_pressure;BME280_temperature;BME280_humidity;BME280_pressure;Samples;Min_cycle;Max_cycle;Signal;HPM_P1;HPM_P2
2023/04/14 00:01:54;;;;;;;0.33;0.33;;;4.70;99.90;6.00;95419.00;;;;5118666;28;20213;-71
2023/04/14 00:04:42;;;;;;;0.37;0.37;;;4.70;99.90;5.90;95424.00;;;;5120615;28;20201;-72
2023/04/14 00:07:31;;;;;;;0.30;0.30;;;4.70;99.90;6.00;95412.00;;;;5120497;28;20206;-71
2023/04/14 00:10:21;;;;;;;0.40;0.40;;;4.80;99.90;5.90;95418.00;;;;5118503;28;20626;-71
2023/04/14 00:13:10;;;;;;;0.30;0.30;;;4.70;99.90;5.90;95415.00;;;;5122683;28;20201;-71
2023/04/14 00:15:59;;;;;;;0.30;0.30;;;4.70;99.90;5.90;95413.00;;;;5125490;27;20194;-71
2023/04/14 00:18:47;;;;;;;0.30;0.30;;;4.40;99.90;5.70;95406.00;;;;5126317;27;20416;-72
2023/04/14 00:21:36;;;;;;;0.30;0.30;;;4.70;99.90;5.40;95397.00;;;;5129681;27;20240;-71
2023/04/14 00:24:25;;;;;;;0.43;0.43;;;4.40;99.90;5.60;95412.00;;;;5122864;27;20779;-71
2023/04/14 00:27:15;;;;;;;0.40;0.40;;;4.40;99.90;5.80;95409.00;;;;5100615;28;20207;-72
2023/04/14 00:30:04;;;;;;;0.30;0.30;;;4.40;99.90;5.70;95414.00;;;;5107652;28;20198;-71
2023/04/14 00:32:53;;;;;;;0.30;0.30;;;4.40;99.90;5.20;95411.00;;;;5101890;28;20297;-71
2023/04/14 00:35:42;;;;;;;0.30;0.30;;;4.70;99.90;5.40;95409.00;;;;5110105;28;20209;-71
2023/04/14 00:38:31;;;;;;;0.30;0.30;;;4.30;99.90;5.60;95420.00;;;;5101463;28;20567;-72
2023/04/14 00:41:20;;;;;;;0.30;0.30;;;4.20;99.90;5.70;95422.00;;;;5103159;28;20800;-71
2023/04/14 00:44:10;;;;;;;0.20;0.20;;;4.10;99.90;5.60;95418.00;;;;5091380;28;20261;-72
2023/04/14 00:47:01;;;;;;;0.30;0.30;;;4.20;99.90;5.70;95417.00;;;;5104170;28;20187;-71
2023/04/14 00:49:50;;;;;;;0.23;0.23;;;4.50;99.90;5.70;95415.00;;;;5107630;28;20194;-71
2023/04/14 00:52:39;;;;;;;0.53;0.47;;;4.40;99.90;5.70;95418.00;;;;5105922;28;20215;-72
2023/04/14 00:55:29;;;;;;;0.57;0.40;;;4.30;99.90;5.70;95420.00;;;;5108234;28;20222;-72
2023/04/14 00:58:18;;;;;;;0.63;0.40;;;4.30;99.90;5.70;95413.00;;;;5107800;28;20272;-71
2023/04/14 01:01:08;;;;;;;0.30;0.30;;;4.40;99.90;5.50;95408.00;;;;5106327;28;20276;-71
2023/04/14 01:03:58;;;;;;;1.90;0.40;;;4.50;99.90;5.80;95410.00;;;;5096881;28;20195;-72
2023/04/14 01:06:47;;;;;;;0.37;0.30;;;4.30;99.90;5.70;95400.00;;;;5103337;28;20199;-71
2023/04/14 01:09:36;;;;;;;0.50;0.50;;;4.10;99.90;5.50;95382.00;;;;5095717;28;20698;-71
2023/04/14 01:12:41;;;;;;;0.70;0.33;;;4.20;99.90;5.60;95385.00;;;;5103218;28;20242;-72
2023/04/14 01:15:36;;;;;;;1.03;0.33;;;4.20;99.90;5.40;95350.00;;;;5102683;28;20218;-71
2023/04/14 01:18:36;;;;;;;0.37;0.37;;;4.40;99.90;5.50;95352.00;;;;5105493;28;20231;-71
2023/04/14 01:21:31;;;;;;;0.40;0.37;;;4.40;99.90;5.50;95363.00;;;;5122485;27;20467;-72
2023/04/14 01:24:47;;;;;;;0.30;0.30;;;4.20;99.90;5.40;95368.00;;;;5120643;27;20199;-71
2023/04/14 01:27:44;;;;;;;5.00;0.60;;;4.00;99.90;5.50;95364.00;;;;5124519;27;20416;-71
2023/04/14 01:30:50;;;;;;;0.40;0.30;;;4.10;99.90;5.40;95346.00;;;;5126465;27;20909;-72
2023/04/14 01:33:44;;;;;;;0.40;0.40;;;4.20;99.90;5.60;95345.00;;;;5123903;27;20427;-72
2023/04/14 01:36:41;;;;;;;0.30;0.30;;;4.00;99.90;5.50;95343.00;;;;5120501;27;21012;-72
2023/04/14 01:39:35;;;;;;;0.37;0.37;;;;;5.30;95318.00;;;;5106575;28;20436;-72
2023/04/14 01:42:26;;;;;;;0.40;0.40;;;;;5.30;95313.00;;;;5107176;28;20233;-72
2023/04/14 01:45:19;;;;;;;0.50;0.50;;;;;5.40;95314.00;;;;5096903;28;20199;-72
2023/04/14 01:48:08;;;;;;;0.83;0.30;;;;;5.40;95330.00;;;;5106561;28;20963;-71
2023/04/14 01:50:59;;;;;;;0.30;0.30;;;;;5.40;95339.00;;;;5104308;28;20252;-71
2023/04/14 01:53:50;;;;;;;1.50;0.30;;;;;5.70;95319.00;;;;5103449;28;20507;-71
2023/04/14 01:56:39;;;;;;;0.40;0.30;;;;;5.80;95312.00;;;;5105854;28;20202;-72
2023/04/14 01:59:29;;;;;;;0.30;0.30;;;;;5.40;95314.00;;;;5099636;28;20220;-71
2023/04/14 02:02:20;;;;;;;0.30;0.30;;;;;5.70;95310.00;;;;5102426;28;20462;-71
2023/04/14 02:05:10;;;;;;;1.53;1.20;;;;;5.60;95309.00;;;;5109346;28;20207;-71
2023/04/14 02:08:01;;;;;;;2.20;1.53;;;;;5.80;95310.00;;;;5104320;28;20288;-71
2023/04/14 02:10:54;;;;;;;1.77;1.63;;;;;5.90;95310.00;;;;5108258;28;20227;-71
2023/04/14 02:13:44;;;;;;;4.13;2.73;;;;;5.70;95305.00;;;;5103812;28;20284;-71
2023/04/14 02:16:34;;;;;;;1.70;1.07;;;;;5.90;95298.00;;;;5109091;28;20280;-71
2023/04/14 02:19:23;;;;;;;1.17;0.60;;;;;5.70;95296.00;;;;5107083;28;20705;-72
2023/04/14 02:22:13;;;;;;;0.60;0.60;;;;;5.70;95304.00;;;;5108721;28;20298;-72
2023/04/14 02:25:03;;;;;;;1.47;0.93;;;;;5.70;95293.00;;;;5104469;28;20199;-72
2023/04/14 02:27:55;;;;;;;0.37;0.37;;;;;5.70;95279.00;;;;5107695;28;20310;-71
2023/04/14 02:30:48;;;;;;;0.40;0.40;;;;;5.80;95291.00;;;;5104455;28;20198;-72
2023/04/14 02:33:38;;;;;;;0.40;0.40;;;;;5.90;95295.00;;;;5102856;28;20211;-71
2023/04/14 02:36:31;;;;;;;0.40;0.40;;;;;5.90;95293.00;;;;5102525;28;20618;-72
2023/04/14 02:39:22;;;;;;;0.33;0.33;;;;;6.00;95286.00;;;;5102994;28;20226;-72
2023/04/14 02:42:14;;;;;;;0.30;0.30;;;;;6.10;95286.00;;;;5114492;27;20716;-72
2023/04/14 02:45:05;;;;;;;0.20;0.20;;;;;5.90;95282.00;;;;5102135;27;20207;-72
2023/04/14 02:47:57;;;;;;;0.30;0.30;;;;;6.00;95288.00;;;;5101118;28;20734;-72
2023/04/14 02:50:48;;;;;;;0.30;0.30;;;;;6.00;95293.00;;;;5094981;28;20213;-72
2023/04/14 02:53:37;;;;;;;0.33;0.30;;;;;5.90;95293.00;;;;5102994;27;20210;-72
2023/04/14 02:56:27;;;;;;;0.20;0.20;;;;;6.00;95292.00;;;;5104437;28;20207;-72
2023/04/14 02:59:18;;;;;;;0.37;0.30;;;;;6.00;95277.00;;;;5100075;28;20227;-72
2023/04/14 03:02:08;;;;;;;0.40;0.40;;;;;6.00;95287.00;;;;5107443;28;20264;-72
2023/04/14 03:04:57;;;;;;;0.20;0.20;;;;;5.90;95294.00;;;;5099515;28;20224;-72
2023/04/14 03:07:47;;;;;;;0.30;0.30;;;;;6.00;95295.00;;;;5101772;28;20209;-72
2023/04/14 03:10:36;;;;;;;0.40;0.40;;;;;6.10;95293.00;;;;5110094;27;20195;-72
2023/04/14 03:13:26;;;;;;;0.30;0.30;;;;;5.90;95283.00;;;;5106628;28;20210;-71
2023/04/14 03:16:19;;;;;;;0.30;0.30;;;;;6.00;95285.00;;;;5104994;28;20202;-72
2023/04/14 03:19:09;;;;;;;0.83;0.73;;;;;6.10;95280.00;;;;5093835;28;20584;-72
2023/04/14 03:21:59;;;;;;;0.50;0.50;;;;;6.10;95293.00;;;;5100729;28;20218;-72
2023/04/14 03:24:49;;;;;;;0.40;0.40;;;;;6.00;95286.00;;;;5099036;28;20203;-72
2023/04/14 03:27:39;;;;;;;0.37;0.37;;;;;5.80;95283.00;;;;5101898;28;20199;-71
2023/04/14 03:30:30;;;;;;;2.13;1.43;;;;;5.90;95279.00;;;;5102389;28;20218;-69
2023/04/14 03:33:22;;;;;;;0.93;0.93;;;;;6.10;95286.00;;;;5101356;28;20198;-72
2023/04/14 03:36:12;;;;;;;0.40;0.40;;;;;6.20;95282.00;;;;5110357;28;20690;-72
2023/04/14 03:39:02;;;;;;;0.40;0.40;;;;;6.10;95275.00;;;;5105538;28;20233;-71
2023/04/14 03:41:53;;;;;;;0.40;0.40;;;;;6.20;95273.00;;;;5105889;28;20230;-72
2023/04/14 03:44:48;;;;;;;0.37;0.37;;;;;6.20;95265.00;;;;5099830;28;20256;-72
2023/04/14 03:47:37;;;;;;;0.60;0.60;;;;;6.20;95261.00;;;;5105433;28;20217;-72
2023/04/14 03:50:31;;;;;;;0.97;0.60;;;;;6.10;95242.00;;;;5095184;28;20206;-71
2023/04/14 03:53:21;;;;;;;0.70;0.70;;;;;5.90;95248.00;;;;5097421;28;20207;-64
2023/04/14 03:56:12;;;;;;;1.10;1.00;;;;;6.00;95229.00;;;;5109303;28;20273;-64
2023/04/14 03:59:02;;;;;;;0.57;0.57;;;;;5.90;95244.00;;;;5106292;28;20771;-64
2023/04/14 04:01:51;;;;;;;0.60;0.50;;;;;6.10;95252.00;;;;5111879;28;20230;-64
2023/04/14 04:04:42;;;;;;;0.50;0.47;;;;;6.10;95233.00;;;;5107688;28;20202;-64
2023/04/14 04:07:32;;;;;;;0.40;0.40;;;;;6.20;95232.00;;;;5113013;27;20707;-64
2023/04/14 04:10:22;;;;;;;0.30;0.30;;;;;6.20;95232.00;;;;5110471;27;20255;-64
2023/04/14 04:13:15;;;;;;;0.57;0.30;;;;;6.00;95232.00;;;;5111238;27;20214;-63
2023/04/14 04:16:07;;;;;;;0.73;0.40;;;;;6.20;95244.00;;;;5108548;27;21161;-64
2023/04/14 04:18:57;;;;;;;11.00;5.87;;;;;6.20;95243.00;;;;5109983;27;20225;-64
2023/04/14 04:21:47;;;;;;;2.47;2.03;;;;;6.20;95250.00;;;;5112054;27;20222;-64
2023/04/14 04:24:40;;;;;;;1.80;1.10;;;;;6.20;95243.00;;;;5104176;27;20279;-64
2023/04/14 04:27:29;;;;;;;0.90;0.90;;;;;6.10;95235.00;;;;5109499;28;20203;-69
2023/04/14 04:30:19;;;;;;;1.17;0.73;;;;;6.30;95229.00;;;;5108370;28;20199;-70
2023/04/14 04:33:08;;;;;;;0.50;0.50;;;5.00;99.90;6.20;95227.00;;;;5104790;27;20222;-69
2023/04/14 04:35:58;;;;;;;0.30;0.30;;;4.90;99.90;6.10;95241.00;;;;5111766;27;20195;-71
2023/04/14 04:38:48;;;;;;;0.50;0.50;;;4.90;99.90;6.30;95246.00;;;;5101750;27;20677;-71
2023/04/14 04:41:38;;;;;;;0.50;0.50;;;4.90;99.90;6.30;95242.00;;;;5104964;28;21946;-71
2023/04/14 04:44:27;;;;;;;0.50;0.40;;;4.90;99.90;6.30;95228.00;;;;5106543;28;20206;-71
2023/04/14 04:47:16;;;;;;;0.50;0.50;;;4.90;99.90;6.20;95240.00;;;;5110799;27;20285;-71
2023/04/14 04:50:05;;;;;;;1.60;0.50;;;4.80;99.90;6.20;95239.00;;;;5104607;28;20244;-71
2023/04/14 04:52:54;;;;;;;1.03;0.60;;;4.90;99.90;6.30;95252.00;;;;5104897;27;20654;-72
2023/04/14 04:55:43;;;;;;;3.80;0.50;;;4.90;99.90;6.40;95258.00;;;;5108406;28;20210;-72
2023/04/14 04:58:33;;;;;;;0.50;0.40;;;4.90;99.90;6.30;95258.00;;;;5106513;27;20813;-71
2023/04/14 05:01:22;;;;;;;0.40;0.40;;;4.90;99.90;6.30;95244.00;;;;5110335;27;20689;-72
2023/04/14 05:04:10;;;;;;;0.50;0.50;;;4.90;99.90;6.30;95242.00;;;;5105965;27;20206;-72
2023/04/14 05:06:59;;;;;;;0.60;0.60;;;4.90;99.90;6.40;95256.00;;;;5105886;27;20201;-72
2023/04/14 05:09:48;;;;;;;0.73;0.67;;;4.90;99.90;6.30;95242.00;;;;5097703;28;20210;-72
2023/04/14 05:12:36;;;;;;;0.77;0.77;;;5.00;99.90;6.40;95252.00;;;;5101095;28;20241;-72
2023/04/14 05:15:26;;;;;;;0.60;0.60;;;4.90;99.90;6.40;95268.00;;;;5102134;28;20198;-72
2023/04/14 05:18:15;;;;;;;0.53;0.53;;;4.90;99.90;6.50;95269.00;;;;5109121;28;20213;-71
2023/04/14 05:21:05;;;;;;;1.03;0.60;;;5.00;99.90;6.40;95261.00;;;;5104377;28;20226;-71
2023/04/14 05:23:54;;;;;;;0.70;0.70;;;5.00;99.90;6.40;95270.00;;;;5107057;27;20217;-71
2023/04/14 05:26:42;;;;;;;3.10;0.43;;;5.00;99.90;6.40;95266.00;;;;5107832;27;20200;-71
2023/04/14 05:29:42;;;;;;;0.63;0.60;;;5.00;99.90;6.40;95268.00;;;;5113312;27;20201;-72
2023/04/14 05:32:32;;;;;;;4.60;0.70;;;5.00;99.90;6.30;95266.00;;;;5104309;28;20229;-70
2023/04/14 05:35:23;;;;;;;0.47;0.40;;;5.00;99.90;6.20;95270.00;;;;5101050;27;20233;-72
2023/04/14 05:38:12;;;;;;;0.50;0.50;;;5.00;99.90;6.40;95273.00;;;;5105348;27;20194;-72
2023/04/14 05:41:01;;;;;;;1.73;0.50;;;4.90;99.90;6.40;95278.00;;;;5104964;27;20218;-72
2023/04/14 05:43:49;;;;;;;0.50;0.50;;;4.90;99.90;6.50;95284.00;;;;5106743;27;20194;-71
2023/04/14 05:46:38;;;;;;;0.40;0.40;;;5.00;99.90;6.40;95278.00;;;;5107025;27;20199;-72
2023/04/14 05:49:28;;;;;;;0.63;0.60;;;5.00;99.90;6.30;95277.00;;;;5107910;27;20208;-71
2023/04/14 05:52:17;;;;;;;1.37;1.27;;;5.00;99.90;6.40;95271.00;;;;5103938;27;20301;-70
2023/04/14 05:55:07;;;;;;;0.80;0.80;;;5.00;99.90;6.40;95260.00;;;;5104836;27;20188;-71
2023/04/14 05:57:56;;;;;;;1.03;0.80;;;5.00;99.90;6.40;95259.00;;;;5095737;28;20218;-71
2023/04/14 06:00:45;;;;;;;1.60;1.00;;;5.00;99.90;6.30;95248.00;;;;5094865;27;20708;-72
2023/04/14 06:03:33;;;;;;;0.60;0.60;;;5.10;99.90;6.40;95252.00;;;;5132202;27;20196;-72
2023/04/14 06:06:25;;;;;;;0.70;0.70;;;5.00;99.90;6.50;95260.00;;;;5127248;27;20198;-72
2023/04/14 06:09:13;;;;;;;0.73;0.73;;;5.00;99.90;6.50;95261.00;;;;5104667;28;20218;-72
2023/04/14 06:12:02;;;;;;;2.50;2.30;;;5.00;99.90;6.60;95249.00;;;;5100366;28;20216;-72
2023/04/14 06:14:51;;;;;;;4.53;3.77;;;5.10;99.90;6.40;95246.00;;;;5099794;28;20198;-72
2023/04/14 06:17:40;;;;;;;3.13;1.80;;;5.10;99.90;6.50;95236.00;;;;5108538;28;20214;-72
2023/04/14 06:20:30;;;;;;;1.30;1.20;;;5.10;99.90;6.50;95242.00;;;;5106817;27;20230;-73
2023/04/14 06:23:20;;;;;;;1.37;0.83;;;5.10;99.90;6.60;95242.00;;;;5112668;27;20207;-72
2023/04/14 06:26:10;;;;;;;1.80;1.53;;;5.10;99.90;6.60;95260.00;;;;5101888;28;20693;-72
2023/04/14 06:28:59;;;;;;;1.57;1.40;;;5.10;99.90;6.70;95271.00;;;;5119917;27;20209;-72
2023/04/14 06:31:50;;;;;;;1.90;1.37;;;5.20;99.90;6.70;95276.00;;;;5125115;27;20222;-73
2023/04/14 06:34:39;;;;;;;1.10;1.00;;;5.20;99.90;6.70;95278.00;;;;5124536;27;20194;-73
2023/04/14 06:37:28;;;;;;;0.73;0.73;;;5.20;99.90;6.70;95278.00;;;;5124383;27;20197;-72
2023/04/14 06:40:18;;;;;;;0.40;0.40;;;5.20;99.90;6.60;95289.00;;;;5125366;27;20229;-72
2023/04/14 06:43:09;;;;;;;1.07;0.83;;;5.20;99.90;6.70;95296.00;;;;5127006;27;20247;-72
2023/04/14 06:45:58;;;;;;;0.77;0.63;;;5.20;99.90;6.70;95280.00;;;;5124527;27;20206;-72
2023/04/14 06:48:47;;;;;;;0.50;0.50;;;5.20;99.90;6.70;95269.00;;;;5125783;27;20217;-73
2023/04/14 06:51:35;;;;;;;1.37;0.47;;;5.30;99.90;6.70;95263.00;;;;5123837;27;20623;-73
2023/04/14 06:54:24;;;;;;;1.73;0.87;;;5.20;99.90;6.70;95257.00;;;;5124550;27;20206;-73
2023/04/14 06:57:14;;;;;;;0.73;0.60;;;5.20;99.90;6.70;95244.00;;;;5129910;27;20258;-72
2023/04/14 07:00:06;;;;;;;0.67;0.63;;;4.90;99.90;6.70;95229.00;;;;5119889;27;20282;-73
2023/04/14 07:02:55;;;;;;;0.60;0.60;;;5.20;99.90;6.80;95219.00;;;;5119876;27;20236;-72
2023/04/14 07:05:43;;;;;;;0.40;0.40;;;5.30;99.90;6.80;95232.00;;;;5128106;27;20209;-73
2023/04/14 07:08:33;;;;;;;0.50;0.50;;;5.30;99.90;6.80;95236.00;;;;5122447;27;20194;-73
2023/04/14 07:11:22;;;;;;;2.03;1.53;;;5.30;99.90;6.90;95238.00;;;;5124274;27;20233;-73
2023/04/14 07:14:12;;;;;;;1.43;1.33;;;5.30;99.90;6.90;95235.00;;;;5123691;27;20190;-73
2023/04/14 07:17:01;;;;;;;2.93;2.03;;;5.40;99.90;6.90;95235.00;;;;5120874;27;20205;-72
2023/04/14 07:19:49;;;;;;;4.63;1.30;;;5.40;99.90;6.90;95239.00;;;;5100681;28;20197;-72
2023/04/14 07:22:38;;;;;;;1.10;0.97;;;5.40;99.90;6.90;95231.00;;;;5104752;28;20222;-71
2023/04/14 07:25:27;;;;;;;3.37;1.03;;;5.40;99.90;7.00;95237.00;;;;5112841;28;20202;-72
2023/04/14 07:28:16;;;;;;;1.30;0.90;;;5.40;99.90;7.00;95245.00;;;;5114020;28;20201;-71
2023/04/14 07:31:10;;;;;;;1.73;1.20;;;5.50;99.90;7.10;95239.00;;;;5113529;28;20224;-71
2023/04/14 07:33:59;;;;;;;0.73;0.63;;;5.50;99.90;7.10;95232.00;;;;5107399;28;20202;-71
2023/04/14 07:36:49;;;;;;;6.97;2.53;;;5.50;99.90;7.10;95216.00;;;;5108631;28;20193;-73
2023/04/14 07:39:39;;;;;;;3.30;1.43;;;5.60;99.90;7.20;95214.00;;;;5099187;28;20256;-72
2023/04/14 07:42:28;;;;;;;2.33;2.10;;;5.60;99.90;7.20;95215.00;;;;5099164;28;20223;-72
2023/04/14 07:45:17;;;;;;;1.03;1.03;;;5.60;99.90;7.20;95219.00;;;;5105059;28;20203;-73
2023/04/14 07:48:08;;;;;;;0.80;0.80;;;5.60;99.90;7.30;95223.00;;;;5102034;28;20764;-72
2023/04/14 07:50:57;;;;;;;1.83;0.73;;;5.70;99.90;7.40;95231.00;;;;5101956;28;20219;-73
2023/04/14 07:53:45;;;;;;;0.90;0.67;;;5.70;99.90;7.40;95234.00;;;;5104340;28;20199;-73
2023/04/14 07:56:34;;;;;;;1.47;0.60;;;5.80;99.90;7.40;95240.00;;;;5107271;28;20206;-73
2023/04/14 07:59:23;;;;;;;0.77;0.60;;;5.80;99.90;7.20;95235.00;;;;5100191;28;20203;-72
2023/04/14 08:02:11;;;;;;;0.50;0.50;;;5.90;99.90;7.40;95220.00;;;;5110433;28;20234;-72
2023/04/14 08:05:02;;;;;;;0.50;0.50;;;5.80;99.90;7.20;95224.00;;;;5114217;27;20194;-73
2023/04/14 08:07:50;;;;;;;1.20;0.80;;;5.80;99.90;7.40;95224.00;;;;5108129;27;20202;-72
2023/04/14 08:10:40;;;;;;;2.83;0.90;;;5.80;99.90;7.40;95251.00;;;;5106283;28;20650;-72
2023/04/14 08:13:29;;;;;;;0.50;0.37;;;5.80;99.90;7.40;95257.00;;;;5111180;28;20579;-73
2023/04/14 08:16:18;;;;;;;1.63;0.60;;;5.90;99.90;7.40;95262.00;;;;5106511;28;20193;-73
2023/04/14 08:19:07;;;;;;;0.77;0.57;;;5.80;99.90;7.40;95268.00;;;;5107525;28;20214;-73
2023/04/14 08:21:57;;;;;;;2.30;2.10;;;5.90;99.90;7.30;95271.00;;;;5107996;28;20634;-73
2023/04/14 08:24:45;;;;;;;27.87;12.30;;;5.80;99.90;7.00;95263.00;;;;5104296;28;20684;-73
2023/04/14 08:27:35;;;;;;;16.73;7.70;;;5.80;99.90;7.20;95283.00;;;;5107414;28;20194;-73
2023/04/14 08:30:25;;;;;;;14.53;6.87;;;5.80;99.90;7.30;95269.00;;;;5105809;28;20206;-73
2023/04/14 08:33:13;;;;;;;7.03;3.87;;;5.80;99.90;7.40;95267.00;;;;5103440;28;20240;-73
2023/04/14 08:36:02;;;;;;;1.37;1.20;;;5.80;99.90;7.30;95281.00;;;;5099459;28;20221;-73
2023/04/14 08:38:52;;;;;;;0.90;0.90;;;5.80;99.90;7.30;95280.00;;;;5101742;28;20194;-73
2023/04/14 08:41:43;;;;;;;1.00;0.70;;;5.80;99.90;7.40;95268.00;;;;5103652;28;20310;-72
2023/04/14 08:44:31;;;;;;;1.23;0.50;;;5.80;99.90;7.50;95261.00;;;;5108783;27;20203;-72
2023/04/14 08:47:21;;;;;;;0.80;0.80;;;5.90;99.90;7.60;95263.00;;;;5113926;27;20207;-73
2023/04/14 08:50:17;;;;;;;1.00;1.00;;;5.90;99.90;7.60;95249.00;;;;5113269;27;20234;-73
2023/04/14 08:53:09;;;;;;;1.20;1.17;;;6.00;99.90;7.60;95250.00;;;;5105085;27;20202;-73
2023/04/14 08:56:03;;;;;;;0.67;0.67;;;5.90;99.90;7.70;95242.00;;;;5105012;28;20195;-72
2023/04/14 08:58:53;;;;;;;2.10;0.73;;;6.00;99.90;7.50;95234.00;;;;5102504;28;20218;-72
2023/04/14 09:01:41;;;;;;;0.90;0.73;;;6.10;99.90;7.70;95241.00;;;;5109320;28;20252;-72
2023/04/14 09:04:31;;;;;;;0.80;0.80;;;6.10;99.90;7.80;95252.00;;;;5108753;28;20206;-72
2023/04/14 09:07:20;;;;;;;0.63;0.50;;;6.20;99.90;8.00;95255.00;;;;5107311;28;20203;-72
2023/04/14 09:10:11;;;;;;;0.87;0.30;;;6.20;99.90;8.10;95261.00;;;;5109950;28;20666;-72
2023/04/14 09:13:03;;;;;;;0.63;0.60;;;6.30;99.90;8.10;95263.00;;;;5098606;28;20206;-73
2023/04/14 09:15:51;;;;;;;0.70;0.70;;;6.40;99.90;8.10;95272.00;;;;5099484;28;20230;-73
2023/04/14 09:18:40;;;;;;;0.50;0.50;;;6.40;99.90;8.20;95272.00;;;;5099598;28;20692;-72
2023/04/14 09:21:30;;;;;;;2.73;0.47;;;6.40;99.90;8.10;95286.00;;;;5103735;28;20226;-73
2023/04/14 09:24:22;;;;;;;1.30;0.57;;;6.40;99.90;8.00;95272.00;;;;5108950;28;20195;-73
2023/04/14 09:27:11;;;;;;;0.40;0.40;;;6.50;99.90;8.00;95264.00;;;;5107414;28;20213;-73
2023/04/14 09:30:02;;;;;;;0.30;0.30;;;6.50;99.90;7.90;95272.00;;;;5102830;28;20205;-73
2023/04/14 09:32:53;;;;;;;2.73;0.83;;;6.50;99.90;8.20;95262.00;;;;5093712;28;20297;-74
2023/04/14 09:35:47;;;;;;;1.13;0.63;;;6.50;99.90;8.40;95262.00;;;;5103054;28;20187;-73
2023/04/14 09:38:37;;;;;;;0.33;0.33;;;6.60;99.90;8.40;95273.00;;;;5102668;28;20291;-73
2023/04/14 09:41:26;;;;;;;0.50;0.50;;;6.60;99.90;8.50;95276.00;;;;5107559;28;20245;-73
2023/04/14 09:44:15;;;;;;;1.80;0.50;;;6.70;99.90;8.90;95281.00;;;;5106062;28;20203;-74
2023/04/14 09:47:06;;;;;;;10.80;9.17;;;6.80;99.90;8.90;95278.00;;;;5100212;27;20199;-73
2023/04/14 09:49:57;;;;;;;1.17;0.90;;;7.00;99.90;9.10;95277.00;;;;5096235;27;20665;-74
2023/04/14 09:52:47;;;;;;;3.43;1.60;;;7.10;99.90;9.30;95293.00;;;;5106498;27;20713;-73
2023/04/14 09:55:36;;;;;;;0.50;0.50;;;7.20;99.90;9.20;95282.00;;;;5107631;28;20677;-73
2023/04/14 09:58:25;;;;;;;0.83;0.50;;;7.40;99.90;8.90;95294.00;;;;5110122;27;20207;-73
2023/04/14 10:01:17;;;;;;;0.40;0.40;;;7.40;99.90;9.40;95300.00;;;;5107303;27;20271;-74
2023/04/14 10:04:22;;;;;;;0.63;0.63;;;7.40;99.90;9.30;95300.00;;;;5104429;28;20191;-73
2023/04/14 10:07:11;;;;;;;0.80;0.67;;;7.50;99.90;9.40;95309.00;;;;5100569;27;20217;-73
2023/04/14 10:10:07;;;;;;;1.97;0.50;;;7.60;99.90;9.40;95297.00;;;;5101237;27;20195;-71
2023/04/14 10:12:56;;;;;;;0.50;0.50;;;7.60;99.90;9.50;95305.00;;;;5107051;27;20205;-70
2023/04/14 10:15:45;;;;;;;0.73;0.50;;;7.70;99.90;9.60;95300.00;;;;5110859;27;20196;-71
2023/04/14 10:18:35;;;;;;;0.43;0.43;;;7.70;99.90;9.60;95301.00;;;;5107223;27;20202;-70
2023/04/14 10:21:26;;;;;;;0.60;0.50;;;7.80;99.90;9.60;95301.00;;;;5109633;27;20221;-70
2023/04/14 10:24:15;;;;;;;0.57;0.50;;;7.80;99.90;9.80;95307.00;;;;5128948;27;20591;-70
2023/04/14 10:27:05;;;;;;;0.33;0.33;;;7.90;99.90;9.70;95316.00;;;;5124161;27;20866;-71
2023/04/14 10:29:54;;;;;;;1.43;0.50;;;7.90;99.90;9.70;95316.00;;;;5124735;27;20197;-70
2023/04/14 10:32:46;;;;;;;1.00;0.80;;;7.90;99.90;9.60;95331.00;;;;5126521;27;20248;-71
2023/04/14 10:35:40;;;;;;;2.70;1.90;;;7.90;99.90;9.60;95326.00;;;;5128404;27;20198;-71
2023/04/14 10:38:41;;;;;;;2.07;1.17;;;7.90;99.90;9.50;95335.00;;;;5121492;27;20206;-71
2023/04/14 10:41:46;;;;;;;1.13;0.90;;;7.90;99.90;9.10;95335.00;;;;5123618;27;20225;-71
2023/04/14 10:44:36;;;;;;;1.43;1.13;;;7.80;99.90;9.60;95335.00;;;;5125277;27;20194;-71
2023/04/14 10:47:25;;;;;;;1.73;1.10;;;7.80;99.90;9.50;95330.00;;;;5124396;27;20209;-71
2023/04/14 10:50:17;;;;;;;1.03;0.93;;;7.80;99.90;9.60;95332.00;;;;5125144;27;20198;-71
2023/04/14 10:53:08;;;;;;;1.30;1.00;;;7.80;99.90;9.50;95334.00;;;;5118318;27;20571;-71
2023/04/14 10:56:03;;;;;;;1.00;0.90;;;7.80;99.90;9.70;95333.00;;;;5128999;27;20201;-71
2023/04/14 10:58:56;;;;;;;0.60;0.57;;;7.80;99.90;9.80;95328.00;;;;5121754;27;20221;-71
2023/04/14 11:01:54;;;;;;;0.57;0.57;;;7.90;99.90;9.80;95333.00;;;;5121430;27;20264;-71
2023/04/14 11:05:03;;;;;;;1.50;0.80;;;7.90;99.90;9.50;95329.00;;;;5122815;27;20194;-71
2023/04/14 11:07:56;;;;;;;0.60;0.30;;;8.00;99.90;9.50;95327.00;;;;5116787;27;20194;-71
2023/04/14 11:10:49;;;;;;;0.93;0.80;;;8.00;99.90;9.60;95325.00;;;;5127231;27;20206;-71
2023/04/14 11:13:41;;;;;;;1.10;0.53;;;8.00;99.90;9.90;95321.00;;;;5126941;27;20194;-71
2023/04/14 11:16:30;;;;;;;5.60;3.50;;;8.00;99.90;9.60;95321.00;;;;5125204;27;22575;-71
2023/04/14 11:19:19;;;;;;;3.30;2.67;;;8.00;99.90;9.80;95313.00;;;;5125218;27;20190;-71
2023/04/14 11:22:08;;;;;;;2.20;1.70;;;8.00;99.90;9.90;95325.00;;;;5123935;27;20700;-70
2023/04/14 11:24:56;;;;;;;2.00;1.10;;;8.00;99.90;9.90;95323.00;;;;5123307;27;20250;-71
2023/04/14 11:27:47;;;;;;;0.80;0.80;;;8.10;99.90;9.80;95316.00;;;;5121482;27;20205;-71
2023/04/14 11:30:40;;;;;;;0.73;0.53;;;8.10;99.90;9.60;95308.00;;;;5126846;28;20202;-71
2023/04/14 11:33:30;;;;;;;1.10;0.90;;;8.10;99.90;9.70;95311.00;;;;5118953;28;20221;-71
2023/04/14 11:36:18;;;;;;;0.67;0.67;;;8.10;99.90;9.80;95316.00;;;;5123192;28;20219;-71
2023/04/14 11:39:07;;;;;;;0.57;0.57;;;8.10;99.90;9.70;95322.00;;;;5121184;28;20250;-71
2023/04/14 11:41:58;;;;;;;0.50;0.40;;;8.10;99.90;9.90;95316.00;;;;5120749;27;20732;-71
2023/04/14 11:44:48;;;;;;;0.77;0.70;;;8.10;99.90;10.00;95316.00;;;;5125846;27;20202;-71
2023/04/14 11:47:38;;;;;;;0.70;0.70;;;8.10;99.90;9.90;95319.00;;;;5124035;27;20573;-71
2023/04/14 11:50:28;;;;;;;1.30;0.90;;;8.20;99.90;9.70;95307.00;;;;5129167;27;20247;-71
2023/04/14 11:53:18;;;;;;;5.67;4.03;;;8.10;99.90;9.80;95313.00;;;;5125106;27;20198;-71
2023/04/14 11:56:08;;;;;;;8.77;5.50;;;8.10;99.90;9.90;95316.00;;;;5127471;27;20201;-71
2023/04/14 11:59:00;;;;;;;5.20;3.70;;;8.10;99.90;10.00;95320.00;;;;5121359;27;20603;-71
2023/04/14 12:01:51;;;;;;;2.90;1.73;;;8.20;99.90;10.10;95318.00;;;;5120068;27;20226;-71
2023/04/14 12:04:42;;;;;;;2.50;1.50;;;8.30;99.90;10.10;95322.00;;;;5129382;27;20201;-71
2023/04/14 12:07:31;;;;;;;2.47;1.80;;;8.30;99.90;10.20;95326.00;;;;5122802;27;20216;-72
2023/04/14 12:10:22;;;;;;;2.30;1.70;;;8.30;99.90;9.70;95316.00;;;;5123324;27;20255;-72
2023/04/14 12:13:12;;;;;;;1.23;0.83;;;8.30;99.90;9.10;95315.00;;;;5133603;27;20686;-72
2023/04/14 12:16:04;;;;;;;5.03;3.43;;;8.10;99.90;9.80;95317.00;;;;5131583;27;20214;-72
2023/04/14 12:18:54;;;;;;;1.27;1.17;;;8.10;99.90;10.10;95321.00;;;;5128749;27;20197;-71
2023/04/14 12:21:53;;;;;;;1.13;1.03;;;8.20;99.90;10.20;95328.00;;;;5125873;27;20214;-71
2023/04/14 12:24:43;;;;;;;1.33;0.83;;;8.20;99.90;9.50;95317.00;;;;5122655;27;20661;-72
2023/04/14 12:27:32;;;;;;;1.27;0.87;;;8.20;99.90;9.70;95317.00;;;;5128402;27;20217;-72
2023/04/14 12:30:22;;;;;;;0.80;0.50;;;8.20;99.90;9.80;95311.00;;;;5128616;27;20206;-72
2023/04/14 12:33:12;;;;;;;0.33;0.33;;;8.20;99.90;9.60;95306.00;;;;5129154;27;20289;-72
2023/04/14 12:36:03;;;;;;;0.50;0.40;;;8.20;99.90;10.10;95316.00;;;;5126631;27;20206;-72
2023/04/14 12:38:53;;;;;;;2.33;0.90;;;8.20;99.90;10.20;95323.00;;;;5125568;27;20209;-72
2023/04/14 12:41:42;;;;;;;0.83;0.80;;;8.30;99.90;10.00;95308.00;;;;5127556;27;20253;-72
2023/04/14 12:44:31;;;;;;;2.13;1.37;;;8.40;99.90;9.90;95307.00;;;;5125629;27;20222;-72
2023/04/14 12:47:30;;;;;;;0.93;0.93;;;8.30;99.90;10.30;95304.00;;;;5122239;27;20285;-72
2023/04/14 12:50:25;;;;;;;0.50;0.50;;;8.40;99.90;10.40;95304.00;;;;5125525;27;20194;-72
2023/04/14 12:53:25;;;;;;;0.73;0.60;;;8.50;99.90;10.30;95300.00;;;;5123072;27;20683;-71
2023/04/14 12:56:18;;;;;;;0.93;0.70;;;8.50;99.90;10.40;95302.00;;;;5126308;27;20213;-73
2023/04/14 12:59:07;;;;;;;0.40;0.40;;;8.50;99.90;10.50;95298.00;;;;5125150;27;20665;-72
2023/04/14 13:01:56;;;;;;;0.50;0.50;;;8.50;99.90;10.60;95297.00;;;;5123532;27;20221;-73
2023/04/14 13:04:45;;;;;;;0.73;0.60;;;8.70;99.90;10.70;95305.00;;;;5125895;27;20201;-72
2023/04/14 13:07:34;;;;;;;0.50;0.40;;;8.80;99.90;10.70;95292.00;;;;5126759;27;20201;-72
2023/04/14 13:10:23;;;;;;;0.60;0.60;;;8.80;99.90;10.30;95285.00;;;;5124387;27;20588;-73
2023/04/14 13:13:13;;;;;;;0.40;0.40;;;8.80;99.90;10.00;95283.00;;;;5124015;27;20217;-73